PWSweather.com
Personal Weather Stations
Station Observations
WIKENOS15
47th Ave & 30th St, Kenosha, WI 53144

47th Ave & 30th StKenosha, WI 53144

Lat: 42.612, Lon: -87.866

Elevation: 697

Station Type: Oregon Scientific 100N

Latest ConditionsUpdated 5:15:01 AM CDT Saturday, May 23, 2015
Currently Today's Max Today's Min Today's Average
Temperature 44.4°F6.9°C 48.3°F9.1°C 44.4°F6.9°C 46.2°F7.9°C
Dew Point 35.6°F2.0°C 35.8°F2.1°C 33.1°F0.6°C 34.5°F1.4°C
Winds Calm Calm 1.0 mph S1.6 kmh S - 0.1 mph 0.2 kmh
Wind Gusts -- 1.5 mph2.4 kmh - -
Humidity 71% 71% 56% 64%
Pressure 30.29 in1025.7 mb 30.29 in1025.7 mb 30.26 in1024.7 mb -
Hour Temp Dew Point Humidity Winds Wind Gusts Pressure Precip Precip Rate Daily Precip Total
05:15 AM 44.4°F6.9°C 35.6°F2.0°C 71% Calm Calm -- 30.29 in1025.7 mb - 0.00 in0.0 mm 0.00 in0.0 mm
05:00 AM 44.7°F7.1°C 35.2°F1.8°C 69% Calm Calm -- 30.28 in1025.4 mb - 0.00 in0.0 mm 0.00 in0.0 mm
04:45 AM 45.4°F7.4°C 35.5°F1.9°C 68% Calm Calm -- 30.28 in1025.4 mb - 0.00 in0.0 mm 0.00 in0.0 mm
04:30 AM 45.4°F7.4°C 34.7°F1.5°C 66% Calm Calm -- 30.28 in1025.4 mb - 0.00 in0.0 mm 0.00 in0.0 mm
04:00 AM 45.8°F7.7°C 34.7°F1.5°C 65% Calm Calm -- 30.27 in1025.1 mb - 0.00 in0.0 mm 0.00 in0.0 mm
03:45 AM 45.7°F7.6°C 35.0°F1.7°C 66% Calm Calm -- 30.27 in1025.1 mb - 0.00 in0.0 mm 0.00 in0.0 mm
03:30 AM 44.9°F7.2°C 35.7°F2.1°C 70% Calm Calm -- 30.27 in1025.1 mb - 0.00 in0.0 mm 0.00 in0.0 mm
03:15 AM 45.1°F7.3°C 35.5°F1.9°C 69% Calm Calm -- 30.27 in1025.1 mb - 0.00 in0.0 mm 0.00 in0.0 mm
03:00 AM 44.6°F7.0°C 35.1°F1.7°C 69% Calm Calm -- 30.27 in1025.1 mb - 0.00 in0.0 mm 0.00 in0.0 mm
02:45 AM 44.9°F7.2°C 35.7°F2.1°C 70% Calm Calm -- 30.27 in1025.1 mb - 0.00 in0.0 mm 0.00 in0.0 mm
02:30 AM 45.0°F7.2°C 35.8°F2.1°C 70% Calm Calm -- 30.27 in1025.1 mb - 0.00 in0.0 mm 0.00 in0.0 mm
02:15 AM 45.7°F7.6°C 34.2°F1.2°C 64% Calm Calm -- 30.26 in1024.7 mb - 0.00 in0.0 mm 0.00 in0.0 mm
02:00 AM 46.7°F8.2°C 33.9°F1.1°C 61% Calm Calm -- 30.26 in1024.7 mb - 0.00 in0.0 mm 0.00 in0.0 mm
01:45 AM 46.9°F8.3°C 33.7°F0.9°C 60% Calm Calm -- 30.26 in1024.7 mb - 0.00 in0.0 mm 0.00 in0.0 mm
01:30 AM 47.6°F8.7°C 34.0°F1.1°C 59% Calm Calm -- 30.26 in1024.7 mb - 0.00 in0.0 mm 0.00 in0.0 mm
01:15 AM 48.3°F9.1°C 33.3°F0.7°C 56% 0.3 mph S0.5 kmh S 1.5 mph2.4 kmh 30.26 in1024.7 mb - 0.00 in0.0 mm 0.00 in0.0 mm
01:00 AM 48.2°F9.0°C 33.2°F0.7°C 56% Calm Calm 0.8 mph1.3 kmh 30.26 in1024.7 mb - 0.00 in0.0 mm 0.00 in0.0 mm
12:45 AM 47.9°F8.8°C 33.4°F0.8°C 57% 0.2 mph S0.3 kmh S 0.8 mph1.3 kmh 30.26 in1024.7 mb - 0.00 in0.0 mm 0.00 in0.0 mm
12:30 AM 47.8°F8.8°C 33.3°F0.7°C 57% 0.3 mph S0.5 kmh S 1.5 mph2.4 kmh 30.26 in1024.7 mb - 0.00 in0.0 mm 0.00 in0.0 mm
12:15 AM 47.6°F8.7°C 33.1°F0.6°C 57% Calm Calm -- 30.26 in1024.7 mb - 0.00 in0.0 mm 0.00 in0.0 mm
12:00 AM 46.9°F8.3°C 33.3°F0.7°C 59% 1.0 mph S1.6 kmh S 1.5 mph2.4 kmh 30.27 in1025.1 mb - 0.00 in0.0 mm 0.00 in0.0 mm